Time;durP1;ratioP1;P1;durP2;ratioP2;P2;SDS_P1;SDS_P2;PMS_P1;PMS_P2;Temp;Humidity;BMP_temperature;BMP_pressure;BME280_temperature;BME280_humidity;BME280_pressure;Samples;Min_cycle;Max_cycle;Signal;HPM_P1;HPM_P2
2022/04/11 00:02:00;;;;;;;9.15;5.10;;;3.70;67.30;;;;;;5004292;28;20374;-65
2022/04/11 00:04:29;;;;;;;8.07;4.97;;;3.70;67.20;;;;;;5002743;28;20060;-65
2022/04/11 00:06:55;;;;;;;6.70;5.00;;;3.60;67.30;;;;;;5001779;28;20034;-64
2022/04/11 00:09:21;;;;;;;7.28;5.30;;;3.60;67.40;;;;;;5004898;28;20417;-65
2022/04/11 00:11:47;;;;;;;6.78;5.00;;;3.60;67.60;;;;;;5001083;28;20509;-65
2022/04/11 00:14:13;;;;;;;6.18;4.82;;;3.50;67.60;;;;;;5005478;28;20620;-66
2022/04/11 00:16:39;;;;;;;6.57;4.68;;;3.50;67.70;;;;;;5003611;28;20497;-63
2022/04/11 00:19:05;;;;;;;7.68;4.85;;;3.50;67.70;;;;;;5003203;28;20509;-66
2022/04/11 00:21:31;;;;;;;7.70;4.45;;;3.50;67.50;;;;;;5009070;28;20060;-65
2022/04/11 00:23:57;;;;;;;8.20;4.88;;;3.50;67.70;;;;;;5006252;28;20049;-65
2022/04/11 00:26:23;;;;;;;6.95;4.88;;;3.40;67.70;;;;;;5002988;28;20042;-65
2022/04/11 00:28:48;;;;;;;6.20;4.68;;;3.40;67.70;;;;;;5001817;28;20034;-65
2022/04/11 00:31:14;;;;;;;5.40;4.53;;;3.40;67.80;;;;;;5008741;28;20037;-64
2022/04/11 00:33:40;;;;;;;7.20;4.43;;;3.40;68.00;;;;;;5003862;28;20125;-65
2022/04/11 00:36:06;;;;;;;5.53;4.45;;;3.30;68.00;;;;;;4999564;28;20141;-64
2022/04/11 00:38:31;;;;;;;5.68;4.80;;;3.30;68.20;;;;;;5000864;28;20049;-64
2022/04/11 00:40:57;;;;;;;7.00;4.80;;;3.20;68.20;;;;;;5003059;28;20113;-64
2022/04/11 00:43:36;;;;;;;6.82;5.00;;;3.20;68.20;;;;;;5002743;28;20034;-65
2022/04/11 00:46:03;;;;;;;7.55;5.22;;;3.20;68.90;;;;;;5002446;28;20120;-65
2022/04/11 00:48:28;;;;;;;11.95;6.25;;;3.20;68.40;;;;;;5002747;28;20924;-65
2022/04/11 00:50:59;;;;;;;8.85;5.78;;;3.20;68.50;;;;;;5002700;28;20124;-65
2022/04/11 00:53:26;;;;;;;9.10;5.70;;;3.10;68.70;;;;;;5001088;28;20065;-64
2022/04/11 00:55:54;;;;;;;8.82;5.65;;;3.10;68.70;;;;;;5003795;28;20042;-66
2022/04/11 00:58:21;;;;;;;8.85;5.30;;;3.00;68.80;;;;;;5001512;28;20117;-65
2022/04/11 01:00:46;;;;;;;8.32;5.13;;;3.00;68.90;;;;;;5004147;28;20045;-65
2022/04/11 01:03:12;;;;;;;7.80;4.78;;;3.00;69.00;;;;;;5000585;28;20033;-64
2022/04/11 01:05:38;;;;;;;6.35;5.05;;;3.00;69.10;;;;;;5003223;28;20044;-66
2022/04/11 01:08:08;;;;;;;7.80;5.32;;;2.90;69.10;;;;;;5000885;28;20041;-64
2022/04/11 01:10:34;;;;;;;8.88;4.78;;;2.90;69.40;;;;;;5000347;28;20033;-65
2022/04/11 01:13:01;;;;;;;6.07;4.32;;;2.90;69.30;;;;;;5000655;28;20029;-64
2022/04/11 01:15:27;;;;;;;6.30;4.22;;;2.90;69.30;;;;;;4997998;28;20114;-66
2022/04/11 01:17:53;;;;;;;5.45;4.13;;;2.90;69.30;;;;;;5001565;28;20041;-65
2022/04/11 01:20:22;;;;;;;6.35;3.92;;;2.90;69.40;;;;;;5001236;28;20132;-65
2022/04/11 01:22:48;;;;;;;6.20;3.63;;;2.80;69.40;;;;;;5001951;28;20092;-64
2022/04/11 01:25:15;;;;;;;6.97;4.22;;;2.90;69.60;;;;;;5003080;28;20038;-66
2022/04/11 01:27:42;;;;;;;5.45;4.18;;;2.80;69.60;;;;;;5004124;28;20036;-65
2022/04/11 01:30:10;;;;;;;6.30;3.90;;;2.80;69.60;;;;;;5006954;28;20042;-65
2022/04/11 01:32:36;;;;;;;6.03;4.30;;;2.80;69.80;;;;;;5006622;28;20053;-65
2022/04/11 01:35:03;;;;;;;6.63;4.18;;;2.80;69.70;;;;;;5005586;28;20033;-65
2022/04/11 01:37:28;;;;;;;8.07;3.78;;;2.80;69.80;;;;;;5001455;28;20045;-66
2022/04/11 01:39:54;;;;;;;6.13;4.40;;;2.70;69.90;;;;;;5001733;28;20481;-66
2022/04/11 01:42:20;;;;;;;5.45;4.35;;;2.80;70.10;;;;;;5001095;28;20367;-65
2022/04/11 01:44:46;;;;;;;7.28;4.20;;;2.70;70.10;;;;;;5000232;28;20034;-65
2022/04/11 01:47:12;;;;;;;8.38;4.95;;;2.70;70.20;;;;;;5002374;28;20037;-65
2022/04/11 01:49:38;;;;;;;7.38;4.97;;;2.70;70.30;;;;;;5002697;28;20592;-66
2022/04/11 01:52:04;;;;;;;5.70;4.60;;;2.70;70.50;;;;;;5002329;28;20125;-65
2022/04/11 01:54:30;;;;;;;8.25;4.55;;;2.70;70.50;;;;;;5000148;28;20037;-66
2022/04/11 01:56:56;;;;;;;6.50;4.53;;;2.70;70.50;;;;;;5003860;28;20041;-66
2022/04/11 01:59:22;;;;;;;5.50;4.43;;;2.70;70.50;;;;;;5006188;28;20104;-66
2022/04/11 02:01:47;;;;;;;6.68;4.32;;;2.70;70.60;;;;;;5001567;28;20034;-65
2022/04/11 02:04:13;;;;;;;5.85;4.20;;;2.70;70.70;;;;;;4999973;28;20034;-65
2022/04/11 02:06:39;;;;;;;6.38;4.38;;;2.70;70.60;;;;;;5000337;28;20030;-65
2022/04/11 02:09:04;;;;;;;6.10;4.28;;;2.70;70.50;;;;;;4999660;28;20056;-65
2022/04/11 02:11:30;;;;;;;6.10;4.38;;;2.70;70.50;;;;;;4999117;28;20124;-65
2022/04/11 02:13:55;;;;;;;6.20;4.07;;;2.70;70.50;;;;;;5001121;28;20042;-66
2022/04/11 02:16:23;;;;;;;6.05;4.32;;;2.70;70.50;;;;;;4999865;28;20087;-66
2022/04/11 02:18:49;;;;;;;7.28;4.47;;;2.70;70.50;;;;;;5001667;28;20030;-66
2022/04/11 02:21:14;;;;;;;7.20;4.45;;;2.70;70.50;;;;;;4999846;28;20050;-66
2022/04/11 02:23:40;;;;;;;8.80;4.93;;;2.70;70.50;;;;;;5001982;28;20034;-66
2022/04/11 02:26:06;;;;;;;9.02;5.07;;;2.70;70.50;;;;;;5000593;28;20041;-65
2022/04/11 02:28:31;;;;;;;10.55;5.68;;;2.70;70.60;;;;;;5001338;28;20120;-66
2022/04/11 02:30:57;;;;;;;10.93;5.50;;;2.70;70.80;;;;;;4994443;28;20033;-66
2022/04/11 02:33:23;;;;;;;9.38;5.95;;;2.60;70.80;;;;;;4998598;28;20060;-65
2022/04/11 02:35:48;;;;;;;8.95;5.95;;;2.60;71.00;;;;;;5000807;28;20553;-65
2022/04/11 02:38:14;;;;;;;10.55;6.03;;;2.60;71.20;;;;;;5000261;28;20041;-66
2022/04/11 02:40:40;;;;;;;9.70;6.00;;;2.60;71.30;;;;;;5000698;28;20420;-66
2022/04/11 02:43:06;;;;;;;10.52;6.32;;;2.60;71.50;;;;;;4998947;28;20065;-64
2022/04/11 02:45:31;;;;;;;12.88;7.10;;;2.60;71.40;;;;;;4998494;28;20157;-64
2022/04/11 02:47:57;;;;;;;9.07;6.95;;;2.60;71.40;;;;;;5000603;28;20374;-66
2022/04/11 02:50:23;;;;;;;10.88;7.65;;;2.60;71.50;;;;;;4997612;28;20038;-66
2022/04/11 02:52:48;;;;;;;12.23;7.78;;;2.60;71.60;;;;;;5002124;28;20038;-65
2022/04/11 02:55:14;;;;;;;12.32;7.10;;;2.60;71.90;;;;;;5000056;28;20033;-65
2022/04/11 02:57:40;;;;;;;11.38;7.90;;;2.60;72.00;;;;;;5004419;28;20069;-65
2022/04/11 03:00:11;;;;;;;13.10;7.88;;;2.70;72.20;;;;;;5000875;28;20057;-65
2022/04/11 03:02:38;;;;;;;10.95;6.60;;;2.70;73.20;;;;;;5005310;28;20316;-65
2022/04/11 03:05:04;;;;;;;8.95;6.15;;;2.70;72.20;;;;;;4997443;28;20034;-65
2022/04/11 03:07:30;;;;;;;12.93;6.75;;;2.60;72.10;;;;;;4999511;28;20034;-65
2022/04/11 03:09:55;;;;;;;9.50;7.07;;;2.70;72.20;;;;;;5001463;28;20393;-65
2022/04/11 03:12:21;;;;;;;9.55;7.32;;;2.70;72.20;;;;;;4998637;28;20046;-65
2022/04/11 03:14:49;;;;;;;9.93;7.43;;;2.60;72.30;;;;;;5001028;28;20497;-65
2022/04/11 03:17:15;;;;;;;9.93;7.25;;;2.70;72.50;;;;;;5001094;28;20041;-63
2022/04/11 03:19:41;;;;;;;10.65;7.25;;;2.70;72.50;;;;;;5006215;28;20726;-65
2022/04/11 03:22:06;;;;;;;10.85;8.02;;;2.70;72.60;;;;;;5003100;28;20234;-65
2022/04/11 03:24:32;;;;;;;11.25;8.30;;;2.70;72.60;;;;;;5004449;28;20046;-64
2022/04/11 03:26:58;;;;;;;9.70;7.07;;;2.80;72.70;;;;;;5003624;28;20438;-65
2022/04/11 03:29:23;;;;;;;9.52;7.20;;;2.80;72.70;;;;;;5004858;28;20034;-65
2022/04/11 03:31:49;;;;;;;12.68;7.32;;;2.90;72.80;;;;;;5003905;28;20467;-62
2022/04/11 03:34:15;;;;;;;10.23;7.55;;;2.90;72.80;;;;;;5002496;28;20092;-65
2022/04/11 03:36:40;;;;;;;11.65;7.32;;;2.90;72.70;;;;;;5004296;28;20026;-65
2022/04/11 03:39:06;;;;;;;9.93;6.70;;;2.90;72.60;;;;;;5002846;28;20022;-65
2022/04/11 03:41:31;;;;;;;10.73;7.05;;;3.00;72.60;;;;;;5002274;28;20038;-64
2022/04/11 03:43:57;;;;;;;9.43;6.68;;;3.00;72.50;;;;;;5005736;28;20045;-66
2022/04/11 03:46:23;;;;;;;10.30;6.45;;;2.90;72.40;;;;;;5000749;28;20034;-65
2022/04/11 03:48:48;;;;;;;9.93;6.80;;;2.90;72.40;;;;;;5002399;28;20096;-65
2022/04/11 03:51:14;;;;;;;11.70;7.22;;;3.00;72.40;;;;;;5004483;28;20065;-65
2022/04/11 03:53:41;;;;;;;9.20;6.32;;;3.00;72.40;;;;;;4999521;28;20052;-65
2022/04/11 03:56:06;;;;;;;8.60;6.20;;;2.90;72.40;;;;;;5002473;28;20088;-64
2022/04/11 03:58:32;;;;;;;9.07;6.18;;;2.90;72.40;;;;;;5002381;28;20038;-65
2022/04/11 04:00:58;;;;;;;7.93;6.30;;;2.90;72.40;;;;;;5001851;28;20048;-65
2022/04/11 04:03:23;;;;;;;8.60;6.32;;;2.90;72.50;;;;;;5001193;28;20038;-65
2022/04/11 04:05:49;;;;;;;9.20;6.60;;;3.00;72.60;;;;;;5000634;28;20505;-65
2022/04/11 04:08:17;;;;;;;10.82;6.90;;;3.00;72.60;;;;;;5000452;28;20673;-65
2022/04/11 04:10:43;;;;;;;9.77;6.95;;;3.00;72.60;;;;;;4997999;28;20037;-65
2022/04/11 04:13:08;;;;;;;11.70;8.23;;;3.00;72.50;;;;;;5001338;28;20038;-65
2022/04/11 04:15:34;;;;;;;14.57;8.07;;;3.00;72.40;;;;;;4999268;28;20227;-65
2022/04/11 04:18:00;;;;;;;11.52;7.50;;;3.10;72.40;;;;;;5002472;28;20527;-64
2022/04/11 04:20:26;;;;;;;11.02;7.07;;;3.10;72.30;;;;;;5000684;28;20075;-65
2022/04/11 04:22:54;;;;;;;12.02;6.80;;;3.10;72.20;;;;;;5002042;28;20058;-62
2022/04/11 04:25:20;;;;;;;11.25;7.00;;;3.20;72.20;;;;;;4999717;28;20037;-65
2022/04/11 04:27:46;;;;;;;9.18;7.07;;;3.20;72.10;;;;;;5000690;28;20096;-65
2022/04/11 04:30:12;;;;;;;16.35;11.07;;;3.20;72.00;;;;;;5001675;28;20065;-65
2022/04/11 04:32:38;;;;;;;12.50;9.00;;;3.20;72.00;;;;;;4999642;28;20587;-65
2022/04/11 04:35:05;;;;;;;10.77;7.72;;;3.20;72.10;;;;;;5004989;28;20073;-65
2022/04/11 04:37:31;;;;;;;11.40;7.97;;;3.20;72.20;;;;;;5005223;28;20054;-64
2022/04/11 04:39:57;;;;;;;10.50;7.47;;;3.20;72.20;;;;;;5004817;28;20138;-65
2022/04/11 04:42:25;;;;;;;13.38;7.57;;;3.20;72.30;;;;;;5010726;28;20124;-64
2022/04/11 04:44:50;;;;;;;13.73;7.82;;;3.20;72.30;;;;;;5005240;28;20041;-64
2022/04/11 04:47:16;;;;;;;10.73;7.40;;;3.20;72.30;;;;;;5006955;28;20030;-68
2022/04/11 04:49:42;;;;;;;10.10;7.53;;;3.20;72.40;;;;;;5002013;28;20038;-68
2022/04/11 04:52:08;;;;;;;12.70;7.63;;;3.20;72.40;;;;;;5005267;28;20080;-67
2022/04/11 04:54:35;;;;;;;12.35;8.52;;;3.20;72.30;;;;;;5004287;28;20034;-66
2022/04/11 04:57:00;;;;;;;11.23;7.78;;;3.20;72.20;;;;;;5004653;28;20034;-67
2022/04/11 04:59:26;;;;;;;10.55;7.97;;;3.20;72.20;;;;;;5004208;28;20513;-66
2022/04/11 05:01:52;;;;;;;11.35;8.18;;;3.20;72.20;;;;;;5006737;28;20432;-65
2022/04/11 05:04:18;;;;;;;11.38;8.45;;;3.20;72.40;;;;;;5002807;28;20042;-64
2022/04/11 05:06:43;;;;;;;10.63;7.40;;;3.20;72.40;;;;;;5004396;28;20489;-67
2022/04/11 05:09:09;;;;;;;12.25;8.15;;;3.20;72.30;;;;;;5005864;28;20084;-67
2022/04/11 05:11:34;;;;;;;12.20;8.35;;;3.10;72.20;;;;;;4997119;28;20038;-67
2022/04/11 05:14:00;;;;;;;12.65;8.63;;;3.10;72.30;;;;;;5002767;28;20037;-67
2022/04/11 05:16:26;;;;;;;12.75;8.68;;;3.10;72.30;;;;;;5002169;28;20501;-67
2022/04/11 05:18:51;;;;;;;13.40;8.70;;;3.10;72.40;;;;;;5003457;28;20122;-67
2022/04/11 05:21:17;;;;;;;12.85;8.43;;;3.10;72.40;;;;;;5001858;28;20041;-67
2022/04/11 05:23:42;;;;;;;13.70;8.05;;;3.10;72.40;;;;;;5003156;28;20070;-66
2022/04/11 05:26:09;;;;;;;14.68;9.27;;;3.10;72.30;;;;;;5000691;28;20117;-67
2022/04/11 05:28:35;;;;;;;13.25;9.23;;;3.20;72.50;;;;;;5002835;28;20029;-66
2022/04/11 05:31:00;;;;;;;12.73;9.18;;;3.20;72.60;;;;;;5005409;28;20046;-66
2022/04/11 05:33:27;;;;;;;13.48;9.40;;;3.10;72.60;;;;;;5005642;28;20046;-66
2022/04/11 05:35:54;;;;;;;12.23;8.45;;;3.10;72.70;;;;;;5002122;28;20391;-67
2022/04/11 05:38:19;;;;;;;12.45;8.95;;;3.10;72.80;;;;;;5002542;28;20041;-66
2022/04/11 05:40:48;;;;;;;13.90;9.15;;;3.00;72.90;;;;;;5000493;28;20450;-67
2022/04/11 05:43:14;;;;;;;13.32;9.05;;;3.00;73.00;;;;;;5002392;28;20436;-67
2022/04/11 05:45:41;;;;;;;12.48;8.45;;;3.00;73.00;;;;;;5004325;28;20048;-67
2022/04/11 05:48:07;;;;;;;15.00;9.70;;;3.00;73.10;;;;;;5004132;28;20559;-66
2022/04/11 05:50:32;;;;;;;15.88;9.80;;;3.10;73.30;;;;;;5000485;28;20129;-66
2022/04/11 05:52:58;;;;;;;13.02;9.05;;;3.10;73.50;;;;;;5004486;28;20121;-67
2022/04/11 05:55:24;;;;;;;12.30;9.10;;;3.10;73.50;;;;;;5003040;28;20061;-67
2022/04/11 05:57:50;;;;;;;16.60;10.43;;;3.10;73.60;;;;;;5003783;28;20026;-67
2022/04/11 06:00:16;;;;;;;18.98;11.88;;;3.10;73.80;;;;;;5004044;28;20378;-66
2022/04/11 06:02:42;;;;;;;16.48;10.52;;;3.20;74.00;;;;;;5001074;28;20034;-65
2022/04/11 06:05:11;;;;;;;12.32;9.20;;;3.10;74.00;;;;;;5004168;28;20030;-67
2022/04/11 06:07:37;;;;;;;13.68;10.07;;;3.10;74.10;;;;;;5000645;28;20030;-66
2022/04/11 06:10:04;;;;;;;14.13;9.98;;;3.20;74.80;;;;;;5005873;28;20134;-66
2022/04/11 06:12:29;;;;;;;17.05;10.98;;;3.20;75.00;;;;;;4999005;28;20126;-66
2022/04/11 06:14:55;;;;;;;14.57;10.35;;;3.20;75.30;;;;;;5004581;28;20101;-67
2022/04/11 06:17:24;;;;;;;14.60;9.82;;;3.20;75.30;;;;;;5001294;28;20111;-66
2022/04/11 06:19:54;;;;;;;13.77;9.77;;;3.20;75.30;;;;;;5004178;28;20396;-67
2022/04/11 06:22:20;;;;;;;13.95;9.43;;;3.10;75.90;;;;;;5002553;28;20041;-67
2022/04/11 06:24:47;;;;;;;15.85;10.13;;;3.20;75.60;;;;;;5002438;28;20127;-67
2022/04/11 06:27:13;;;;;;;14.88;9.55;;;3.20;76.00;;;;;;5005650;28;20639;-67
2022/04/11 06:29:39;;;;;;;15.00;9.20;;;3.20;76.00;;;;;;5004252;28;20033;-65
2022/04/11 06:32:05;;;;;;;14.40;10.07;;;3.30;76.00;;;;;;5000407;28;20037;-67
2022/04/11 06:34:35;;;;;;;14.30;9.77;;;3.30;75.90;;;;;;5003090;28;20072;-67
2022/04/11 06:37:02;;;;;;;18.02;9.85;;;3.40;76.20;;;;;;5001805;28;20064;-66
2022/04/11 06:39:28;;;;;;;13.23;9.35;;;3.40;76.00;;;;;;5002024;28;20041;-67
2022/04/11 06:41:54;;;;;;;10.25;8.27;;;3.50;76.20;;;;;;5001403;28;20405;-67
2022/04/11 06:44:19;;;;;;;11.80;8.88;;;3.50;75.90;;;;;;5003452;28;20504;-66
2022/04/11 06:46:45;;;;;;;13.43;8.85;;;3.60;75.90;;;;;;5003811;28;20057;-66
2022/04/11 06:49:11;;;;;;;14.32;9.43;;;3.70;75.70;;;;;;5005723;28;20026;-66
2022/04/11 06:51:37;;;;;;;13.35;10.18;;;3.70;75.90;;;;;;5002358;28;20173;-66
2022/04/11 06:54:04;;;;;;;11.13;9.00;;;3.80;76.10;;;;;;5006013;28;20036;-67
2022/04/11 06:56:29;;;;;;;14.63;9.15;;;3.90;76.20;;;;;;5008190;28;20662;-66
2022/04/11 06:58:55;;;;;;;14.05;9.43;;;3.90;76.00;;;;;;5006186;28;20034;-66
2022/04/11 07:01:20;;;;;;;12.07;9.23;;;4.00;76.00;;;;;;5008695;28;20045;-66
2022/04/11 07:03:46;;;;;;;12.05;8.35;;;4.10;76.30;;;;;;5006873;28;20037;-66
2022/04/11 07:06:12;;;;;;;10.80;8.40;;;4.10;76.40;;;;;;5006972;28;20045;-67
2022/04/11 07:08:37;;;;;;;13.25;8.25;;;4.20;76.10;;;;;;5009971;28;20549;-66
2022/04/11 07:11:04;;;;;;;12.73;8.50;;;4.30;75.90;;;;;;5005536;28;20084;-66
2022/04/11 07:13:30;;;;;;;13.00;9.25;;;4.30;76.60;;;;;;5006223;28;20044;-66
2022/04/11 07:15:56;;;;;;;12.00;8.50;;;4.40;75.50;;;;;;5003928;28;20467;-66
2022/04/11 07:18:27;;;;;;;11.38;8.70;;;4.50;75.50;;;;;;5009164;28;20500;-66
2022/04/11 07:20:53;;;;;;;10.68;8.45;;;4.60;75.70;;;;;;5006330;28;20034;-66
2022/04/11 07:23:19;;;;;;;13.45;9.05;;;4.60;75.50;;;;;;5003796;28;20034;-64
2022/04/11 07:25:44;;;;;;;11.82;9.32;;;4.70;75.60;;;;;;5003422;28;20586;-64
2022/04/11 07:28:10;;;;;;;13.18;8.68;;;4.70;75.70;;;;;;5007644;28;20034;-65
2022/04/11 07:30:36;;;;;;;11.27;8.43;;;4.80;75.60;;;;;;5007427;28;20521;-64
2022/04/11 07:33:02;;;;;;;12.52;8.45;;;4.80;75.50;;;;;;5005065;28;21334;-64
2022/04/11 07:35:27;;;;;;;11.15;7.32;;;4.90;75.40;;;;;;5008215;28;20030;-64
2022/04/11 07:37:53;;;;;;;8.68;6.75;;;5.00;75.30;;;;;;5006692;28;20034;-64
2022/04/11 07:40:19;;;;;;;9.57;6.45;;;5.00;75.20;;;;;;5005134;28;20381;-63
2022/04/11 07:42:44;;;;;;;8.73;6.03;;;5.10;74.90;;;;;;5005997;28;20033;-63
2022/04/11 07:45:10;;;;;;;9.00;7.28;;;5.20;74.80;;;;;;5007926;28;20500;-65
2022/04/11 07:47:36;;;;;;;10.48;7.07;;;5.30;74.70;;;;;;5008352;28;20054;-64
2022/04/11 07:50:02;;;;;;;9.40;6.85;;;5.40;74.30;;;;;;5006464;28;20132;-64
2022/04/11 07:52:28;;;;;;;7.28;5.55;;;5.50;74.10;;;;;;5004839;28;20604;-64
2022/04/11 07:54:54;;;;;;;7.43;6.22;;;5.60;74.00;;;;;;5002734;28;20049;-64
2022/04/11 07:57:21;;;;;;;8.93;6.35;;;5.70;74.00;;;;;;5007421;28;20030;-64
2022/04/11 07:59:46;;;;;;;9.90;6.20;;;5.80;73.90;;;;;;5005328;28;20026;-64
2022/04/11 08:02:12;;;;;;;8.15;6.50;;;5.90;73.80;;;;;;5003497;28;20034;-65
2022/04/11 08:04:37;;;;;;;11.85;6.43;;;6.00;73.40;;;;;;5003831;28;20042;-64
2022/04/11 08:07:03;;;;;;;7.78;6.15;;;6.10;73.20;;;;;;5008303;28;20131;-64
2022/04/11 08:09:29;;;;;;;8.52;6.25;;;6.20;73.00;;;;;;5005901;28;20038;-64
2022/04/11 08:11:55;;;;;;;6.90;5.95;;;6.30;72.90;;;;;;5004062;28;20420;-64
2022/04/11 08:14:21;;;;;;;8.15;6.13;;;6.40;72.60;;;;;;5005373;28;20469;-64
2022/04/11 08:16:47;;;;;;;7.68;5.80;;;6.50;72.40;;;;;;5005654;28;20049;-63
2022/04/11 08:19:13;;;;;;;6.97;4.80;;;6.60;72.20;;;;;;5003164;28;20060;-64
2022/04/11 08:21:39;;;;;;;7.47;5.15;;;6.70;72.10;;;;;;5006929;28;20045;-64
2022/04/11 08:24:05;;;;;;;6.22;5.10;;;6.80;72.10;;;;;;5005817;28;20045;-64
2022/04/11 08:26:30;;;;;;;8.10;4.78;;;6.90;72.00;;;;;;5003438;28;20037;-64
2022/04/11 08:28:56;;;;;;;6.88;4.60;;;7.00;71.40;;;;;;5019777;28;20124;-64
2022/04/11 08:31:22;;;;;;;6.60;4.20;;;7.10;70.90;;;;;;5004538;28;20030;-65
2022/04/11 08:33:48;;;;;;;5.32;4.20;;;7.20;70.60;;;;;;5004746;28;20046;-63
2022/04/11 08:36:13;;;;;;;5.03;4.53;;;7.30;71.40;;;;;;5007601;28;20045;-64
2022/04/11 08:38:39;;;;;;;7.90;4.28;;;7.50;70.40;;;;;;5007154;28;20037;-64
2022/04/11 08:41:08;;;;;;;5.20;3.88;;;7.50;70.90;;;;;;5003565;28;20042;-64
2022/04/11 08:43:36;;;;;;;4.80;3.58;;;7.70;69.70;;;;;;5003855;28;20521;-64
2022/04/11 08:46:05;;;;;;;3.85;3.05;;;7.80;69.20;;;;;;5004457;28;20042;-64
2022/04/11 08:48:32;;;;;;;4.18;3.40;;;7.90;68.80;;;;;;5001255;28;20049;-64
2022/04/11 08:50:58;;;;;;;4.13;2.90;;;8.00;68.50;;;;;;5006343;28;20034;-64
2022/04/11 08:53:24;;;;;;;4.85;2.50;;;8.10;68.10;;;;;;5004997;28;20034;-64
2022/04/11 08:55:51;;;;;;;3.40;2.50;;;8.30;67.60;;;;;;5003663;28;20091;-64
2022/04/11 08:58:17;;;;;;;2.88;2.25;;;8.40;67.10;;;;;;5004907;28;20493;-64
2022/04/11 09:00:42;;;;;;;3.78;2.40;;;8.50;66.60;;;;;;5006072;28;20041;-64
2022/04/11 09:03:08;;;;;;;3.08;2.22;;;8.70;66.20;;;;;;5005507;28;22217;-64
2022/04/11 09:05:34;;;;;;;3.47;2.20;;;8.80;65.70;;;;;;5004836;28;20064;-64
2022/04/11 09:07:59;;;;;;;3.28;2.05;;;8.90;65.20;;;;;;5005055;28;20026;-64
2022/04/11 09:10:27;;;;;;;3.80;1.67;;;9.00;64.60;;;;;;5004841;28;20030;-64
2022/04/11 09:12:55;;;;;;;3.47;1.63;;;9.20;63.90;;;;;;5005018;28;20030;-64
2022/04/11 09:15:23;;;;;;;2.55;1.60;;;9.30;63.00;;;;;;5014661;28;20515;-64
2022/04/11 09:17:49;;;;;;;2.05;1.70;;;9.40;62.60;;;;;;5006821;28;20037;-63
2022/04/11 09:20:23;;;;;;;1.45;1.35;;;9.50;62.20;;;;;;5003216;28;20069;-65
2022/04/11 09:22:49;;;;;;;1.67;1.53;;;9.60;61.20;;;;;;5004617;28;20100;-64
2022/04/11 09:25:29;;;;;;;1.83;1.48;;;9.80;61.50;;;;;;5004075;28;20118;-64
2022/04/11 09:28:09;;;;;;;2.25;1.67;;;9.90;59.50;;;;;;5000407;28;20046;-64
2022/04/11 09:30:39;;;;;;;1.85;1.70;;;10.10;59.30;;;;;;5003849;28;20034;-64
2022/04/11 09:33:07;;;;;;;3.55;1.40;;;10.20;59.80;;;;;;5004977;28;20042;-65
2022/04/11 09:35:35;;;;;;;3.92;1.65;;;10.30;59.60;;;;;;5003534;28;20041;-64
2022/04/11 09:38:21;;;;;;;2.50;2.30;;;10.40;59.10;;;;;;5005557;28;20360;-64
2022/04/11 09:40:48;;;;;;;2.15;1.70;;;10.60;58.40;;;;;;5015028;28;20037;-64
2022/04/11 09:43:15;;;;;;;1.77;1.67;;;10.70;59.20;;;;;;5002690;28;20049;-64
2022/04/11 09:45:49;;;;;;;1.80;1.70;;;10.70;59.00;;;;;;5005062;28;20576;-64
2022/04/11 09:48:25;;;;;;;2.05;1.90;;;10.90;58.20;;;;;;5004430;28;20038;-64
2022/04/11 09:50:53;;;;;;;2.10;1.90;;;11.00;58.20;;;;;;5002655;28;20038;-63
2022/04/11 09:53:21;;;;;;;2.75;1.90;;;11.10;58.00;;;;;;5003452;28;20593;-62
2022/04/11 09:55:52;;;;;;;2.75;1.90;;;11.20;58.20;;;;;;5006009;28;20266;-65
2022/04/11 09:58:23;;;;;;;2.67;1.83;;;11.30;58.00;;;;;;5004217;28;20038;-65
2022/04/11 10:00:50;;;;;;;2.13;1.67;;;11.40;57.70;;;;;;5005866;28;20038;-64
2022/04/11 10:03:25;;;;;;;1.77;1.65;;;11.50;57.90;;;;;;5005732;28;20092;-65
2022/04/11 10:05:51;;;;;;;;;;;11.60;57.20;;;;;;5005318;28;20096;-65
2022/04/11 10:08:18;;;;;;;3.20;1.60;;;11.70;56.80;;;;;;5001217;28;19913;-65
2022/04/11 10:10:44;;;;;;;2.05;1.50;;;11.80;57.70;;;;;;4995124;28;20196;-65
2022/04/11 10:13:12;;;;;;;1.55;1.17;;;11.80;57.00;;;;;;5004767;28;20568;-65
2022/04/11 10:15:38;;;;;;;2.55;1.33;;;12.00;56.50;;;;;;5003207;28;20065;-64
2022/04/11 10:18:06;;;;;;;2.40;1.67;;;12.00;56.40;;;;;;5005689;28;20045;-65
2022/04/11 10:20:36;;;;;;;3.58;1.40;;;12.10;56.10;;;;;;5006348;28;20041;-65
2022/04/11 10:23:10;;;;;;;1.73;1.40;;;12.20;55.60;;;;;;5004594;28;20034;-64
2022/04/11 10:25:50;;;;;;;2.08;1.70;;;12.30;55.30;;;;;;5003611;28;20026;-64
2022/04/11 10:28:24;;;;;;;2.08;1.60;;;12.50;54.90;;;;;;5003958;28;20034;-65
2022/04/11 10:31:11;;;;;;;1.33;1.23;;;12.50;54.40;;;;;;5002384;28;20056;-65
2022/04/11 10:33:49;;;;;;;1.30;1.20;;;12.60;54.10;;;;;;5004394;28;20034;-64
2022/04/11 10:36:33;;;;;;;2.13;1.42;;;12.70;54.10;;;;;;5004626;28;20473;-65
2022/04/11 10:39:14;;;;;;;2.13;1.23;;;12.70;54.00;;;;;;5004731;28;20122;-64
2022/04/11 10:41:58;;;;;;;1.52;1.30;;;12.80;53.50;;;;;;5005506;28;20124;-65
2022/04/11 10:44:53;;;;;;;1.50;1.40;;;12.90;53.50;;;;;;5002937;28;20034;-65
2022/04/11 10:47:46;;;;;;;1.45;1.35;;;12.90;51.80;;;;;;5005403;28;20095;-65
2022/04/11 10:50:19;;;;;;;1.65;1.40;;;13.00;52.80;;;;;;5002943;28;20238;-65
2022/04/11 10:52:52;;;;;;;2.08;1.50;;;13.10;53.20;;;;;;5005669;28;20026;-66
2022/04/11 10:55:19;;;;;;;2.67;1.48;;;13.10;53.20;;;;;;5001944;28;20037;-66
2022/04/11 10:57:46;;;;;;;2.00;1.80;;;13.10;53.50;;;;;;5014798;28;20034;-65
2022/04/11 11:00:26;;;;;;;2.47;1.20;;;13.20;52.20;;;;;;5021657;28;20121;-64
2022/04/11 11:02:52;;;;;;;2.33;1.50;;;13.20;52.60;;;;;;5003134;28;20038;-64
2022/04/11 11:05:25;;;;;;;2.13;1.60;;;13.30;53.40;;;;;;5003011;28;20084;-65
2022/04/11 11:08:09;;;;;;;;;;;;;;;;;;;;;
2022/04/11 11:10:52;;;;;;;2.97;1.30;;;13.50;51.90;;;;;;4997987;28;20030;-62
2022/04/11 11:13:41;;;;;;;1.40;1.30;;;13.50;51.70;;;;;;5005796;28;20057;-65
2022/04/11 11:16:07;;;;;;;7.82;2.20;;;13.60;51.00;;;;;;5002008;28;20092;-64
2022/04/11 11:21:14;;;;;;;1.70;1.42;;;13.70;51.00;;;;;;5001321;28;20050;-65
2022/04/11 11:23:40;;;;;;;1.50;1.40;;;13.70;51.90;;;;;;5003095;28;20095;-65
2022/04/11 11:26:11;;;;;;;1.48;1.38;;;13.70;51.90;;;;;;5002196;28;22646;-65
2022/04/11 11:28:37;;;;;;;1.40;1.30;;;13.80;51.60;;;;;;5014391;28;20037;-65
2022/04/11 11:31:04;;;;;;;1.27;1.17;;;13.80;51.90;;;;;;5000100;28;20049;-64
2022/04/11 11:33:30;;;;;;;1.75;1.30;;;13.90;51.70;;;;;;5003989;28;20072;-64
2022/04/11 11:35:56;;;;;;;1.58;1.42;;;13.90;51.70;;;;;;5001207;28;20038;-65
2022/04/11 11:38:23;;;;;;;6.32;1.50;;;14.00;51.60;;;;;;5013323;28;20034;-65
2022/04/11 11:40:53;;;;;;;1.88;1.35;;;14.10;51.40;;;;;;5002587;28;20037;-65
2022/04/11 11:43:20;;;;;;;3.70;1.60;;;14.10;51.30;;;;;;5006084;28;20567;-63
2022/04/11 11:45:47;;;;;;;2.17;1.30;;;14.20;51.10;;;;;;5004662;28;20041;-65
2022/04/11 11:48:40;;;;;;;1.30;1.20;;;14.20;51.20;;;;;;5008131;28;20044;-65
2022/04/11 11:51:06;;;;;;;1.90;1.50;;;14.30;50.10;;;;;;5005470;28;20038;-65
2022/04/11 11:53:43;;;;;;;1.30;1.20;;;14.40;50.60;;;;;;5007274;28;20762;-65
2022/04/11 11:56:09;;;;;;;1.73;1.30;;;14.40;49.80;;;;;;5007460;28;20112;-65
2022/04/11 11:58:39;;;;;;;1.63;1.20;;;14.50;50.50;;;;;;5005743;28;20117;-64
2022/04/11 12:01:09;;;;;;;1.85;1.40;;;14.50;50.40;;;;;;5006040;28;20041;-65
2022/04/11 12:06:26;;;;;;;5.50;1.25;;;14.60;50.00;;;;;;5007905;28;20100;-65
2022/04/11 12:09:03;;;;;;;2.53;1.30;;;14.60;49.60;;;;;;5005529;28;20053;-64
2022/04/11 12:11:30;;;;;;;2.10;1.40;;;14.70;49.50;;;;;;5018662;28;20053;-65
2022/04/11 12:14:07;;;;;;;1.92;1.20;;;14.70;49.90;;;;;;5006979;28;20030;-65
2022/04/11 12:16:35;;;;;;;1.52;1.30;;;14.70;48.40;;;;;;5003564;28;20411;-65
2022/04/11 12:19:02;;;;;;;1.55;1.33;;;14.80;49.20;;;;;;5007679;28;20046;-65
2022/04/11 12:21:29;;;;;;;2.65;1.23;;;14.80;49.60;;;;;;5006970;28;20072;-65
2022/04/11 12:23:54;;;;;;;2.22;1.63;;;14.90;49.60;;;;;;5006617;28;20412;-65
2022/04/11 12:26:31;;;;;;;1.25;1.15;;;14.90;49.50;;;;;;5004031;28;20492;-65
2022/04/11 12:29:00;;;;;;;2.00;1.40;;;15.00;48.80;;;;;;5004765;28;20095;-66
2022/04/11 12:31:25;;;;;;;3.05;1.10;;;15.00;49.10;;;;;;5007535;28;20371;-66
2022/04/11 12:33:52;;;;;;;1.50;1.10;;;15.00;48.90;;;;;;5005371;28;20044;-65
2022/04/11 12:36:22;;;;;;;1.40;0.90;;;15.10;48.90;;;;;;5006452;28;20041;-65
2022/04/11 12:39:09;;;;;;;1.20;1.10;;;15.10;48.50;;;;;;5004799;28;20035;-65
2022/04/11 12:41:39;;;;;;;1.40;1.30;;;15.20;47.60;;;;;;5007660;28;20088;-65
2022/04/11 12:44:07;;;;;;;1.50;1.35;;;15.30;48.40;;;;;;5004155;28;20077;-65
2022/04/11 12:46:36;;;;;;;1.80;1.02;;;15.30;48.10;;;;;;5006663;28;20042;-64
2022/04/11 12:49:04;;;;;;;2.05;1.33;;;15.40;47.80;;;;;;5005635;28;20456;-64
2022/04/11 12:51:30;;;;;;;1.98;1.50;;;15.40;47.60;;;;;;5006173;28;20895;-65
2022/04/11 12:54:13;;;;;;;2.10;1.10;;;15.40;47.00;;;;;;5002959;28;20041;-65
2022/04/11 12:56:45;;;;;;;2.00;1.17;;;15.40;46.20;;;;;;5006187;28;20476;-65
2022/04/11 12:59:25;;;;;;;2.53;1.15;;;15.50;47.40;;;;;;5006007;28;20100;-66
2022/04/11 13:02:15;;;;;;;2.95;1.10;;;15.50;47.50;;;;;;5006925;28;20060;-66